sensor_id;sensor_type;location;lat;lon;timestamp;pressure;altitude;pressure_sealevel;temperature;humidity
3668;BME280;24099;47.102;15.440;2022-12-18T00:01:16;98452.69;;;-4.75;100.00
3668;BME280;24099;47.102;15.440;2022-12-18T00:03:46;98455.16;;;-4.96;100.00
3668;BME280;24099;47.102;15.440;2022-12-18T00:06:14;98456.19;;;-5.00;100.00
3668;BME280;24099;47.102;15.440;2022-12-18T00:08:42;98459.97;;;-4.87;100.00
3668;BME280;24099;47.102;15.440;2022-12-18T00:11:14;98461.41;;;-5.03;100.00
3668;BME280;24099;47.102;15.440;2022-12-18T00:13:42;98466.78;;;-4.86;100.00
3668;BME280;24099;47.102;15.440;2022-12-18T00:16:12;98475.56;;;-4.93;100.00
3668;BME280;24099;47.102;15.440;2022-12-18T00:18:40;98477.84;;;-4.83;100.00
3668;BME280;24099;47.102;15.440;2022-12-18T00:21:10;98472.81;;;-4.87;100.00
3668;BME280;24099;47.102;15.440;2022-12-18T00:23:39;98477.75;;;-5.05;100.00
3668;BME280;24099;47.102;15.440;2022-12-18T00:26:10;98487.28;;;-5.09;100.00
3668;BME280;24099;47.102;15.440;2022-12-18T00:28:43;98487.78;;;-4.99;100.00
3668;BME280;24099;47.102;15.440;2022-12-18T00:31:12;98485.59;;;-5.10;100.00
3668;BME280;24099;47.102;15.440;2022-12-18T00:33:41;98487.88;;;-5.26;100.00
3668;BME280;24099;47.102;15.440;2022-12-18T00:36:11;98492.94;;;-5.24;100.00
3668;BME280;24099;47.102;15.440;2022-12-18T00:38:40;98505.44;;;-5.15;100.00
3668;BME280;24099;47.102;15.440;2022-12-18T00:41:09;98494.78;;;-5.03;100.00
3668;BME280;24099;47.102;15.440;2022-12-18T00:43:38;98502.13;;;-4.94;100.00
3668;BME280;24099;47.102;15.440;2022-12-18T00:46:06;98507.66;;;-5.04;100.00
3668;BME280;24099;47.102;15.440;2022-12-18T00:48:34;98516.75;;;-4.96;100.00
3668;BME280;24099;47.102;15.440;2022-12-18T00:51:02;98509.84;;;-4.94;100.00
3668;BME280;24099;47.102;15.440;2022-12-18T00:53:30;98507.81;;;-5.09;100.00
3668;BME280;24099;47.102;15.440;2022-12-18T00:55:57;98516.34;;;-5.08;100.00
3668;BME280;24099;47.102;15.440;2022-12-18T00:58:25;98508.19;;;-5.19;100.00
3668;BME280;24099;47.102;15.440;2022-12-18T01:00:53;98513.63;;;-5.29;100.00
3668;BME280;24099;47.102;15.440;2022-12-18T01:03:22;98516.69;;;-5.19;100.00
3668;BME280;24099;47.102;15.440;2022-12-18T01:05:51;98511.94;;;-5.30;100.00
3668;BME280;24099;47.102;15.440;2022-12-18T01:08:18;98513.53;;;-5.26;100.00
3668;BME280;24099;47.102;15.440;2022-12-18T01:10:46;98524.41;;;-5.19;100.00
3668;BME280;24099;47.102;15.440;2022-12-18T01:13:14;98527.75;;;-5.17;100.00
3668;BME280;24099;47.102;15.440;2022-12-18T01:15:48;98534.25;;;-5.07;100.00
3668;BME280;24099;47.102;15.440;2022-12-18T01:18:16;98528.59;;;-5.16;100.00
3668;BME280;24099;47.102;15.440;2022-12-18T01:20:46;98532.38;;;-5.27;100.00
3668;BME280;24099;47.102;15.440;2022-12-18T01:23:13;98543.00;;;-5.12;100.00
3668;BME280;24099;47.102;15.440;2022-12-18T01:25:41;98548.84;;;-5.34;100.00
3668;BME280;24099;47.102;15.440;2022-12-18T01:28:10;98539.91;;;-5.48;100.00
3668;BME280;24099;47.102;15.440;2022-12-18T01:30:38;98544.31;;;-5.52;100.00
3668;BME280;24099;47.102;15.440;2022-12-18T01:33:05;98550.88;;;-5.43;100.00
3668;BME280;24099;47.102;15.440;2022-12-18T01:35:33;98552.44;;;-5.39;100.00
3668;BME280;24099;47.102;15.440;2022-12-18T01:38:08;98548.97;;;-5.38;100.00
3668;BME280;24099;47.102;15.440;2022-12-18T01:40:35;98547.53;;;-5.45;100.00
3668;BME280;24099;47.102;15.440;2022-12-18T01:43:04;98558.06;;;-5.55;100.00
3668;BME280;24099;47.102;15.440;2022-12-18T01:45:32;98554.69;;;-5.57;100.00
3668;BME280;24099;47.102;15.440;2022-12-18T01:48:02;98552.94;;;-5.55;100.00
3668;BME280;24099;47.102;15.440;2022-12-18T01:50:34;98567.00;;;-5.40;100.00
3668;BME280;24099;47.102;15.440;2022-12-18T01:53:10;98565.38;;;-5.42;100.00
3668;BME280;24099;47.102;15.440;2022-12-18T01:55:42;98570.00;;;-5.53;100.00
3668;BME280;24099;47.102;15.440;2022-12-18T01:58:18;98577.69;;;-5.53;100.00
3668;BME280;24099;47.102;15.440;2022-12-18T02:00:47;98580.59;;;-5.64;100.00
3668;BME280;24099;47.102;15.440;2022-12-18T02:03:15;98582.19;;;-5.60;100.00
3668;BME280;24099;47.102;15.440;2022-12-18T02:05:49;98584.53;;;-5.54;100.00
3668;BME280;24099;47.102;15.440;2022-12-18T02:08:28;98588.34;;;-5.66;100.00
3668;BME280;24099;47.102;15.440;2022-12-18T02:11:04;98584.91;;;-5.65;100.00
3668;BME280;24099;47.102;15.440;2022-12-18T02:13:41;98582.81;;;-5.53;100.00
3668;BME280;24099;47.102;15.440;2022-12-18T02:16:19;98593.88;;;-5.51;100.00
3668;BME280;24099;47.102;15.440;2022-12-18T02:18:52;98597.28;;;-5.51;100.00
3668;BME280;24099;47.102;15.440;2022-12-18T02:21:28;98598.59;;;-5.66;100.00
3668;BME280;24099;47.102;15.440;2022-12-18T02:24:12;98591.16;;;-5.75;100.00
3668;BME280;24099;47.102;15.440;2022-12-18T02:26:46;98592.75;;;-5.71;100.00
3668;BME280;24099;47.102;15.440;2022-12-18T02:29:18;98601.25;;;-5.69;100.00
3668;BME280;24099;47.102;15.440;2022-12-18T02:31:52;98604.88;;;-5.76;100.00
3668;BME280;24099;47.102;15.440;2022-12-18T02:34:34;98594.63;;;-5.76;100.00
3668;BME280;24099;47.102;15.440;2022-12-18T02:37:07;98597.00;;;-5.70;100.00
3668;BME280;24099;47.102;15.440;2022-12-18T02:39:40;98589.34;;;-5.71;100.00
3668;BME280;24099;47.102;15.440;2022-12-18T02:42:12;98590.03;;;-5.65;100.00
3668;BME280;24099;47.102;15.440;2022-12-18T02:44:44;98596.66;;;-5.59;100.00
3668;BME280;24099;47.102;15.440;2022-12-18T02:47:18;98595.38;;;-5.72;100.00
3668;BME280;24099;47.102;15.440;2022-12-18T02:49:55;98604.53;;;-5.64;100.00
3668;BME280;24099;47.102;15.440;2022-12-18T02:52:34;98609.00;;;-5.70;100.00
3668;BME280;24099;47.102;15.440;2022-12-18T02:55:15;98618.22;;;-5.65;100.00
3668;BME280;24099;47.102;15.440;2022-12-18T02:57:55;98615.72;;;-5.66;100.00
3668;BME280;24099;47.102;15.440;2022-12-18T03:00:33;98614.59;;;-5.85;100.00
3668;BME280;24099;47.102;15.440;2022-12-18T03:03:07;98618.81;;;-5.84;100.00
3668;BME280;24099;47.102;15.440;2022-12-18T03:05:43;98617.16;;;-5.85;100.00
3668;BME280;24099;47.102;15.440;2022-12-18T03:08:17;98623.88;;;-5.81;100.00
3668;BME280;24099;47.102;15.440;2022-12-18T03:10:53;98626.31;;;-5.78;100.00
3668;BME280;24099;47.102;15.440;2022-12-18T03:13:31;98631.59;;;-5.83;100.00
3668;BME280;24099;47.102;15.440;2022-12-18T03:16:02;98626.59;;;-5.87;100.00
3668;BME280;24099;47.102;15.440;2022-12-18T03:18:36;98623.28;;;-5.89;100.00
3668;BME280;24099;47.102;15.440;2022-12-18T03:21:07;98619.41;;;-6.03;100.00
3668;BME280;24099;47.102;15.440;2022-12-18T03:23:43;98617.31;;;-5.90;100.00
3668;BME280;24099;47.102;15.440;2022-12-18T03:26:15;98615.94;;;-5.74;100.00
3668;BME280;24099;47.102;15.440;2022-12-18T03:28:49;98621.31;;;-5.81;100.00
3668;BME280;24099;47.102;15.440;2022-12-18T03:31:21;98626.38;;;-5.80;100.00
3668;BME280;24099;47.102;15.440;2022-12-18T03:33:54;98625.88;;;-5.91;100.00
3668;BME280;24099;47.102;15.440;2022-12-18T03:36:30;98628.56;;;-5.96;100.00
3668;BME280;24099;47.102;15.440;2022-12-18T03:38:58;98627.16;;;-6.06;100.00
3668;BME280;24099;47.102;15.440;2022-12-18T03:41:29;98632.25;;;-6.04;100.00
3668;BME280;24099;47.102;15.440;2022-12-18T03:44:23;98626.88;;;-5.97;100.00
3668;BME280;24099;47.102;15.440;2022-12-18T03:47:01;98625.88;;;-6.20;100.00
3668;BME280;24099;47.102;15.440;2022-12-18T03:49:37;98638.34;;;-6.08;100.00
3668;BME280;24099;47.102;15.440;2022-12-18T03:52:09;98645.34;;;-5.85;100.00
3668;BME280;24099;47.102;15.440;2022-12-18T03:54:40;98648.06;;;-5.90;100.00
3668;BME280;24099;47.102;15.440;2022-12-18T03:57:16;98638.22;;;-6.04;100.00
3668;BME280;24099;47.102;15.440;2022-12-18T03:59:50;98643.81;;;-6.20;100.00
3668;BME280;24099;47.102;15.440;2022-12-18T04:02:24;98638.53;;;-6.16;100.00
3668;BME280;24099;47.102;15.440;2022-12-18T04:04:57;98650.34;;;-6.10;100.00
3668;BME280;24099;47.102;15.440;2022-12-18T04:07:27;98645.09;;;-6.06;100.00
3668;BME280;24099;47.102;15.440;2022-12-18T04:09:58;98649.91;;;-5.95;100.00
3668;BME280;24099;47.102;15.440;2022-12-18T04:12:31;98654.88;;;-5.89;100.00
3668;BME280;24099;47.102;15.440;2022-12-18T04:15:04;98644.22;;;-6.05;100.00
3668;BME280;24099;47.102;15.440;2022-12-18T04:17:33;98639.41;;;-6.17;100.00
3668;BME280;24099;47.102;15.440;2022-12-18T04:20:01;98644.03;;;-5.99;100.00
3668;BME280;24099;47.102;15.440;2022-12-18T04:22:30;98651.63;;;-5.96;100.00
3668;BME280;24099;47.102;15.440;2022-12-18T04:25:00;98653.78;;;-5.82;100.00
3668;BME280;24099;47.102;15.440;2022-12-18T04:27:35;98661.19;;;-6.01;100.00
3668;BME280;24099;47.102;15.440;2022-12-18T04:30:07;98668.19;;;-6.07;100.00
3668;BME280;24099;47.102;15.440;2022-12-18T04:32:36;98670.94;;;-6.13;100.00
3668;BME280;24099;47.102;15.440;2022-12-18T04:35:04;98674.13;;;-6.05;100.00
3668;BME280;24099;47.102;15.440;2022-12-18T04:37:38;98676.09;;;-6.15;100.00
3668;BME280;24099;47.102;15.440;2022-12-18T04:40:07;98686.75;;;-6.30;100.00
3668;BME280;24099;47.102;15.440;2022-12-18T04:42:40;98680.28;;;-6.43;100.00
3668;BME280;24099;47.102;15.440;2022-12-18T04:45:10;98680.25;;;-6.42;100.00
3668;BME280;24099;47.102;15.440;2022-12-18T04:47:38;98689.44;;;-6.35;100.00
3668;BME280;24099;47.102;15.440;2022-12-18T04:50:06;98706.00;;;-6.48;100.00
3668;BME280;24099;47.102;15.440;2022-12-18T04:52:34;98703.59;;;-6.54;100.00
3668;BME280;24099;47.102;15.440;2022-12-18T04:55:02;98703.56;;;-6.52;100.00
3668;BME280;24099;47.102;15.440;2022-12-18T04:57:30;98706.66;;;-6.40;100.00
3668;BME280;24099;47.102;15.440;2022-12-18T04:59:58;98707.47;;;-6.39;100.00
3668;BME280;24099;47.102;15.440;2022-12-18T05:02:27;98700.25;;;-6.23;100.00
3668;BME280;24099;47.102;15.440;2022-12-18T05:04:55;98694.78;;;-6.11;100.00
3668;BME280;24099;47.102;15.440;2022-12-18T05:07:23;98697.00;;;-6.30;100.00
3668;BME280;24099;47.102;15.440;2022-12-18T05:09:51;98710.72;;;-6.33;100.00
3668;BME280;24099;47.102;15.440;2022-12-18T05:12:18;98718.84;;;-6.17;100.00
3668;BME280;24099;47.102;15.440;2022-12-18T05:14:46;98719.84;;;-6.55;100.00
3668;BME280;24099;47.102;15.440;2022-12-18T05:17:14;98720.63;;;-6.53;100.00
3668;BME280;24099;47.102;15.440;2022-12-18T05:19:43;98716.19;;;-6.45;100.00
3668;BME280;24099;47.102;15.440;2022-12-18T05:22:11;98718.84;;;-6.49;100.00
3668;BME280;24099;47.102;15.440;2022-12-18T05:24:38;98734.97;;;-6.46;100.00
3668;BME280;24099;47.102;15.440;2022-12-18T05:27:06;98739.28;;;-6.48;100.00
3668;BME280;24099;47.102;15.440;2022-12-18T05:29:34;98746.97;;;-6.48;100.00
3668;BME280;24099;47.102;15.440;2022-12-18T05:32:02;98746.16;;;-6.50;100.00
3668;BME280;24099;47.102;15.440;2022-12-18T05:34:30;98751.50;;;-6.59;100.00
3668;BME280;24099;47.102;15.440;2022-12-18T05:36:59;98746.53;;;-6.64;100.00
3668;BME280;24099;47.102;15.440;2022-12-18T05:39:26;98756.94;;;-6.71;100.00
3668;BME280;24099;47.102;15.440;2022-12-18T05:41:57;98756.06;;;-6.70;100.00
3668;BME280;24099;47.102;15.440;2022-12-18T05:44:25;98757.72;;;-6.68;100.00
3668;BME280;24099;47.102;15.440;2022-12-18T05:46:53;98754.91;;;-6.58;100.00
3668;BME280;24099;47.102;15.440;2022-12-18T05:49:21;98757.88;;;-6.40;100.00
3668;BME280;24099;47.102;15.440;2022-12-18T05:51:48;98756.00;;;-6.33;100.00
3668;BME280;24099;47.102;15.440;2022-12-18T05:54:18;98750.19;;;-6.40;100.00
3668;BME280;24099;47.102;15.440;2022-12-18T05:56:46;98756.97;;;-6.39;100.00
3668;BME280;24099;47.102;15.440;2022-12-18T05:59:14;98756.28;;;-6.44;100.00
3668;BME280;24099;47.102;15.440;2022-12-18T06:01:45;98756.41;;;-6.50;100.00
3668;BME280;24099;47.102;15.440;2022-12-18T06:04:15;98760.44;;;-6.40;100.00
3668;BME280;24099;47.102;15.440;2022-12-18T06:06:43;98764.78;;;-6.43;100.00
3668;BME280;24099;47.102;15.440;2022-12-18T06:09:11;98774.13;;;-6.41;100.00
3668;BME280;24099;47.102;15.440;2022-12-18T06:11:40;98774.91;;;-6.39;100.00
3668;BME280;24099;47.102;15.440;2022-12-18T06:14:08;98770.59;;;-6.37;100.00
3668;BME280;24099;47.102;15.440;2022-12-18T06:16:37;98769.44;;;-6.25;100.00
3668;BME280;24099;47.102;15.440;2022-12-18T06:19:07;98774.03;;;-6.38;100.00
3668;BME280;24099;47.102;15.440;2022-12-18T06:21:35;98781.31;;;-6.21;100.00
3668;BME280;24099;47.102;15.440;2022-12-18T06:24:03;98790.47;;;-6.12;100.00
3668;BME280;24099;47.102;15.440;2022-12-18T06:26:31;98793.81;;;-6.10;100.00
3668;BME280;24099;47.102;15.440;2022-12-18T06:29:00;98800.56;;;-6.06;100.00
3668;BME280;24099;47.102;15.440;2022-12-18T06:31:28;98803.91;;;-6.03;100.00
3668;BME280;24099;47.102;15.440;2022-12-18T06:33:55;98807.38;;;-6.05;100.00
3668;BME280;24099;47.102;15.440;2022-12-18T06:36:23;98811.25;;;-5.91;100.00
3668;BME280;24099;47.102;15.440;2022-12-18T06:38:51;98817.13;;;-5.87;100.00
3668;BME280;24099;47.102;15.440;2022-12-18T06:41:20;98813.84;;;-5.92;100.00
3668;BME280;24099;47.102;15.440;2022-12-18T06:43:48;98818.69;;;-5.81;100.00
3668;BME280;24099;47.102;15.440;2022-12-18T06:46:17;98817.31;;;-5.62;100.00
3668;BME280;24099;47.102;15.440;2022-12-18T06:48:47;98815.97;;;-5.44;100.00
3668;BME280;24099;47.102;15.440;2022-12-18T06:51:21;98824.72;;;-5.53;100.00
3668;BME280;24099;47.102;15.440;2022-12-18T06:53:49;98823.28;;;-5.62;100.00
3668;BME280;24099;47.102;15.440;2022-12-18T06:56:17;98832.50;;;-5.56;100.00
3668;BME280;24099;47.102;15.440;2022-12-18T06:58:45;98834.16;;;-5.53;100.00
3668;BME280;24099;47.102;15.440;2022-12-18T07:01:13;98839.94;;;-5.45;100.00
3668;BME280;24099;47.102;15.440;2022-12-18T07:03:42;98842.50;;;-5.45;100.00
3668;BME280;24099;47.102;15.440;2022-12-18T07:06:14;98841.19;;;-5.29;100.00
3668;BME280;24099;47.102;15.440;2022-12-18T07:08:43;98836.94;;;-5.30;100.00
3668;BME280;24099;47.102;15.440;2022-12-18T07:11:11;98847.19;;;-5.30;100.00
3668;BME280;24099;47.102;15.440;2022-12-18T07:13:39;98839.97;;;-5.17;100.00
3668;BME280;24099;47.102;15.440;2022-12-18T07:16:08;98847.50;;;-5.11;100.00
3668;BME280;24099;47.102;15.440;2022-12-18T07:18:36;98850.75;;;-5.05;100.00
3668;BME280;24099;47.102;15.440;2022-12-18T07:21:07;98851.41;;;-4.98;100.00
3668;BME280;24099;47.102;15.440;2022-12-18T07:23:36;98857.13;;;-4.89;100.00
3668;BME280;24099;47.102;15.440;2022-12-18T07:26:04;98857.13;;;-4.89;100.00
3668;BME280;24099;47.102;15.440;2022-12-18T07:28:34;98858.00;;;-4.90;100.00
3668;BME280;24099;47.102;15.440;2022-12-18T07:31:03;98872.22;;;-4.79;100.00
3668;BME280;24099;47.102;15.440;2022-12-18T07:33:32;98875.63;;;-4.79;100.00
3668;BME280;24099;47.102;15.440;2022-12-18T07:36:00;98876.22;;;-4.69;100.00
3668;BME280;24099;47.102;15.440;2022-12-18T07:38:29;98872.59;;;-4.62;100.00
3668;BME280;24099;47.102;15.440;2022-12-18T07:41:01;98873.16;;;-4.53;100.00
3668;BME280;24099;47.102;15.440;2022-12-18T07:43:29;98879.25;;;-4.57;100.00
3668;BME280;24099;47.102;15.440;2022-12-18T07:45:56;98875.72;;;-4.53;100.00
3668;BME280;24099;47.102;15.440;2022-12-18T07:48:24;98878.81;;;-4.41;100.00
3668;BME280;24099;47.102;15.440;2022-12-18T07:50:52;98879.44;;;-4.35;100.00
3668;BME280;24099;47.102;15.440;2022-12-18T07:53:20;98889.81;;;-4.38;100.00
3668;BME280;24099;47.102;15.440;2022-12-18T07:55:49;98885.06;;;-4.22;100.00
3668;BME280;24099;47.102;15.440;2022-12-18T07:58:16;98887.50;;;-4.19;100.00
3668;BME280;24099;47.102;15.440;2022-12-18T08:00:46;98890.88;;;-4.17;100.00
3668;BME280;24099;47.102;15.440;2022-12-18T08:03:13;98897.66;;;-4.14;100.00
3668;BME280;24099;47.102;15.440;2022-12-18T08:05:41;98894.88;;;-4.08;100.00
3668;BME280;24099;47.102;15.440;2022-12-18T08:08:09;98897.09;;;-3.98;100.00
3668;BME280;24099;47.102;15.440;2022-12-18T08:10:37;98896.88;;;-3.90;100.00
3668;BME280;24099;47.102;15.440;2022-12-18T08:13:07;98893.41;;;-3.89;100.00
3668;BME280;24099;47.102;15.440;2022-12-18T08:15:34;98894.25;;;-3.89;100.00
3668;BME280;24099;47.102;15.440;2022-12-18T08:18:02;98906.22;;;-3.88;100.00
3668;BME280;24099;47.102;15.440;2022-12-18T08:20:30;98907.91;;;-3.87;100.00
3668;BME280;24099;47.102;15.440;2022-12-18T08:22:59;98911.13;;;-3.80;100.00
3668;BME280;24099;47.102;15.440;2022-12-18T08:25:26;98910.09;;;-3.76;100.00
3668;BME280;24099;47.102;15.440;2022-12-18T08:27:54;98901.41;;;-3.72;100.00
3668;BME280;24099;47.102;15.440;2022-12-18T08:30:24;98886.81;;;-3.71;100.00
3668;BME280;24099;47.102;15.440;2022-12-18T08:32:52;98871.41;;;-3.73;100.00
3668;BME280;24099;47.102;15.440;2022-12-18T08:35:20;98877.25;;;-3.68;100.00
3668;BME280;24099;47.102;15.440;2022-12-18T08:37:48;98875.69;;;-3.72;100.00
3668;BME280;24099;47.102;15.440;2022-12-18T08:40:15;98883.28;;;-3.69;100.00
3668;BME280;24099;47.102;15.440;2022-12-18T08:42:44;98892.78;;;-3.71;100.00
3668;BME280;24099;47.102;15.440;2022-12-18T08:45:30;98894.38;;;-3.67;100.00
3668;BME280;24099;47.102;15.440;2022-12-18T08:47:58;98887.06;;;-3.54;100.00
3668;BME280;24099;47.102;15.440;2022-12-18T08:50:26;98898.47;;;-3.61;100.00
3668;BME280;24099;47.102;15.440;2022-12-18T08:52:54;98898.31;;;-3.57;100.00
3668;BME280;24099;47.102;15.440;2022-12-18T08:55:23;98893.91;;;-3.28;100.00
3668;BME280;24099;47.102;15.440;2022-12-18T08:57:51;98905.88;;;-3.27;100.00
3668;BME280;24099;47.102;15.440;2022-12-18T09:00:19;98901.94;;;-3.37;100.00
3668;BME280;24099;47.102;15.440;2022-12-18T09:02:49;98900.88;;;-3.07;100.00
3668;BME280;24099;47.102;15.440;2022-12-18T09:05:16;98891.72;;;-3.16;100.00
3668;BME280;24099;47.102;15.440;2022-12-18T09:07:45;98894.03;;;-3.08;100.00
3668;BME280;24099;47.102;15.440;2022-12-18T09:10:13;98891.81;;;-3.19;100.00
3668;BME280;24099;47.102;15.440;2022-12-18T09:12:40;98895.59;;;-3.04;100.00
3668;BME280;24099;47.102;15.440;2022-12-18T09:15:09;98891.91;;;-3.20;100.00
3668;BME280;24099;47.102;15.440;2022-12-18T09:17:36;98897.81;;;-3.41;100.00
3668;BME280;24099;47.102;15.440;2022-12-18T09:20:07;98894.00;;;-3.31;100.00
3668;BME280;24099;47.102;15.440;2022-12-18T09:22:35;98908.16;;;-3.20;100.00
3668;BME280;24099;47.102;15.440;2022-12-18T09:25:03;98911.75;;;-3.24;100.00
3668;BME280;24099;47.102;15.440;2022-12-18T09:27:33;98909.94;;;-3.20;100.00
3668;BME280;24099;47.102;15.440;2022-12-18T09:30:01;98908.75;;;-3.12;100.00
3668;BME280;24099;47.102;15.440;2022-12-18T09:32:29;98908.50;;;-3.04;100.00
3668;BME280;24099;47.102;15.440;2022-12-18T09:34:57;98904.06;;;-3.00;100.00
3668;BME280;24099;47.102;15.440;2022-12-18T09:37:26;98894.84;;;-2.83;100.00
3668;BME280;24099;47.102;15.440;2022-12-18T09:39:54;98896.16;;;-2.96;100.00
3668;BME280;24099;47.102;15.440;2022-12-18T09:42:22;98902.38;;;-2.78;100.00
3668;BME280;24099;47.102;15.440;2022-12-18T09:44:52;98894.56;;;-2.53;100.00
3668;BME280;24099;47.102;15.440;2022-12-18T09:47:23;98896.25;;;-2.75;100.00
3668;BME280;24099;47.102;15.440;2022-12-18T09:49:56;98882.38;;;-2.95;100.00
3668;BME280;24099;47.102;15.440;2022-12-18T09:52:29;98881.00;;;-2.80;100.00
3668;BME280;24099;47.102;15.440;2022-12-18T09:55:03;98875.75;;;-2.79;100.00
3668;BME280;24099;47.102;15.440;2022-12-18T09:57:37;98876.56;;;-2.55;100.00
3668;BME280;24099;47.102;15.440;2022-12-18T10:00:17;98879.16;;;-2.55;100.00
3668;BME280;24099;47.102;15.440;2022-12-18T10:02:47;98873.88;;;-2.52;100.00
3668;BME280;24099;47.102;15.440;2022-12-18T10:05:19;98871.94;;;-2.45;100.00
3668;BME280;24099;47.102;15.440;2022-12-18T10:07:55;98867.78;;;-2.27;100.00
3668;BME280;24099;47.102;15.440;2022-12-18T10:10:33;98862.19;;;-2.38;100.00
3668;BME280;24099;47.102;15.440;2022-12-18T10:13:10;98866.50;;;-2.39;100.00
3668;BME280;24099;47.102;15.440;2022-12-18T10:15:50;98866.72;;;-2.44;100.00
3668;BME280;24099;47.102;15.440;2022-12-18T10:18:25;98866.78;;;-2.45;100.00
3668;BME280;24099;47.102;15.440;2022-12-18T10:20:56;98861.50;;;-2.42;100.00
3668;BME280;24099;47.102;15.440;2022-12-18T10:23:33;98861.28;;;-2.37;100.00
3668;BME280;24099;47.102;15.440;2022-12-18T10:26:08;98868.50;;;-2.24;100.00
3668;BME280;24099;47.102;15.440;2022-12-18T10:28:37;98869.09;;;-2.17;100.00
3668;BME280;24099;47.102;15.440;2022-12-18T10:31:06;98867.06;;;-2.31;100.00
3668;BME280;24099;47.102;15.440;2022-12-18T10:33:35;98872.56;;;-2.18;100.00
3668;BME280;24099;47.102;15.440;2022-12-18T10:36:03;98874.72;;;-2.08;100.00
3668;BME280;24099;47.102;15.440;2022-12-18T10:38:34;98873.78;;;-2.05;100.00
3668;BME280;24099;47.102;15.440;2022-12-18T10:41:03;98879.44;;;-1.97;100.00
3668;BME280;24099;47.102;15.440;2022-12-18T10:43:33;98872.66;;;-1.99;100.00
3668;BME280;24099;47.102;15.440;2022-12-18T10:46:12;98879.50;;;-1.98;100.00
3668;BME280;24099;47.102;15.440;2022-12-18T10:48:53;98866.59;;;-1.98;100.00
3668;BME280;24099;47.102;15.440;2022-12-18T10:51:23;98863.66;;;-1.89;100.00
3668;BME280;24099;47.102;15.440;2022-12-18T10:53:55;98860.56;;;-1.77;100.00
3668;BME280;24099;47.102;15.440;2022-12-18T10:56:24;98854.00;;;-1.84;100.00
3668;BME280;24099;47.102;15.440;2022-12-18T10:58:59;98856.31;;;-1.78;100.00
3668;BME280;24099;47.102;15.440;2022-12-18T11:01:28;98846.81;;;-1.78;100.00
3668;BME280;24099;47.102;15.440;2022-12-18T11:04:07;98848.72;;;-1.81;100.00
3668;BME280;24099;47.102;15.440;2022-12-18T11:06:53;98852.19;;;-1.62;100.00
3668;BME280;24099;47.102;15.440;2022-12-18T11:09:23;98855.88;;;-1.67;100.00
3668;BME280;24099;47.102;15.440;2022-12-18T11:11:53;98863.00;;;-1.74;100.00
3668;BME280;24099;47.102;15.440;2022-12-18T11:14:23;98860.00;;;-1.43;100.00
3668;BME280;24099;47.102;15.440;2022-12-18T11:16:53;98861.22;;;-1.72;100.00
3668;BME280;24099;47.102;15.440;2022-12-18T11:19:27;98849.16;;;-1.71;100.00
3668;BME280;24099;47.102;15.440;2022-12-18T11:21:57;98852.56;;;-1.51;100.00
3668;BME280;24099;47.102;15.440;2022-12-18T11:24:29;98853.72;;;-1.58;100.00
3668;BME280;24099;47.102;15.440;2022-12-18T11:27:00;98848.50;;;-1.77;100.00
3668;BME280;24099;47.102;15.440;2022-12-18T11:29:36;98843.66;;;-2.04;100.00
3668;BME280;24099;47.102;15.440;2022-12-18T11:32:30;98849.03;;;-1.89;100.00
3668;BME280;24099;47.102;15.440;2022-12-18T11:35:07;98841.34;;;-1.90;100.00
3668;BME280;24099;47.102;15.440;2022-12-18T11:37:39;98842.66;;;-1.80;100.00
3668;BME280;24099;47.102;15.440;2022-12-18T11:40:13;98841.44;;;-2.14;100.00
3668;BME280;24099;47.102;15.440;2022-12-18T11:42:48;98844.44;;;-1.82;100.00
3668;BME280;24099;47.102;15.440;2022-12-18T11:45:27;98836.25;;;-1.71;100.00
3668;BME280;24099;47.102;15.440;2022-12-18T11:47:59;98835.81;;;-1.81;100.00
3668;BME280;24099;47.102;15.440;2022-12-18T11:50:33;98840.28;;;-2.06;100.00
3668;BME280;24099;47.102;15.440;2022-12-18T11:53:10;98828.94;;;-2.23;100.00
3668;BME280;24099;47.102;15.440;2022-12-18T11:55:58;98841.09;;;-1.84;100.00
3668;BME280;24099;47.102;15.440;2022-12-18T11:58:45;98842.56;;;-1.58;100.00
3668;BME280;24099;47.102;15.440;2022-12-18T12:01:35;98840.09;;;-2.22;100.00
3668;BME280;24099;47.102;15.440;2022-12-18T12:04:35;98830.22;;;-2.13;100.00
3668;BME280;24099;47.102;15.440;2022-12-18T12:07:21;98830.91;;;-2.29;100.00
3668;BME280;24099;47.102;15.440;2022-12-18T12:09:58;98838.59;;;-2.28;100.00
3668;BME280;24099;47.102;15.440;2022-12-18T12:12:36;98839.63;;;-2.12;100.00
3668;BME280;24099;47.102;15.440;2022-12-18T12:15:13;98844.81;;;-1.91;100.00
3668;BME280;24099;47.102;15.440;2022-12-18T12:17:50;98850.13;;;-1.74;100.00
3668;BME280;24099;47.102;15.440;2022-12-18T12:20:24;98844.69;;;-2.09;100.00
3668;BME280;24099;47.102;15.440;2022-12-18T12:23:00;98850.25;;;-2.19;100.00
3668;BME280;24099;47.102;15.440;2022-12-18T12:25:37;98851.94;;;-2.18;100.00
3668;BME280;24099;47.102;15.440;2022-12-18T12:28:19;98850.13;;;-2.16;100.00
3668;BME280;24099;47.102;15.440;2022-12-18T12:31:01;98846.91;;;-2.21;100.00
3668;BME280;24099;47.102;15.440;2022-12-18T12:33:38;98840.25;;;-2.27;100.00
3668;BME280;24099;47.102;15.440;2022-12-18T12:36:13;98847.09;;;-2.26;100.00
3668;BME280;24099;47.102;15.440;2022-12-18T12:38:46;98849.69;;;-2.26;100.00
3668;BME280;24099;47.102;15.440;2022-12-18T12:41:18;98848.06;;;-2.28;100.00
3668;BME280;24099;47.102;15.440;2022-12-18T12:44:12;98848.88;;;-2.06;100.00
3668;BME280;24099;47.102;15.440;2022-12-18T12:46:43;98854.53;;;-1.98;100.00
3668;BME280;24099;47.102;15.440;2022-12-18T12:49:14;98850.75;;;-1.89;100.00
3668;BME280;24099;47.102;15.440;2022-12-18T12:51:45;98848.41;;;-1.95;100.00
3668;BME280;24099;47.102;15.440;2022-12-18T12:54:17;98852.47;;;-2.10;100.00
3668;BME280;24099;47.102;15.440;2022-12-18T12:56:50;98846.97;;;-2.23;100.00
3668;BME280;24099;47.102;15.440;2022-12-18T12:59:25;98851.25;;;-2.22;100.00
3668;BME280;24099;47.102;15.440;2022-12-18T13:02:04;98849.50;;;-2.21;100.00
3668;BME280;24099;47.102;15.440;2022-12-18T13:04:36;98852.66;;;-2.15;100.00
3668;BME280;24099;47.102;15.440;2022-12-18T13:07:15;98844.41;;;-2.23;100.00
3668;BME280;24099;47.102;15.440;2022-12-18T13:12:31;98844.75;;;-2.10;100.00
3668;BME280;24099;47.102;15.440;2022-12-18T13:15:22;98840.78;;;-2.19;100.00